Terminal Aerodrome Forecast
Issued by NWS Anchorage, AK

Home | Current Version | Previous Version | Text Only | Print | Product List | Glossary On
Versions: 1 2 3 4 5 6 7 8 9 10 11 12 13 14 15 16 17 18 19 20 21 22 23 24 25 26 27 28 29 30 31 32
000
FTAK31 PANC 270523
TAFANC
TAF
PANC 270523Z 2706/2812 14008KT P6SM VCSH BKN060 WS015/12045KT
      TEMPO 2706/2710 14010G20KT
     FM271000 14008KT P6SM VCSH BKN060
     FM272000 VRB06KT P6SM BKN080=

USA.gov is the U.S. government's official web portal to all federal, state and local government web resources and services.